Mapa de nuvens (SC)

Imagem satélite Climatempo

Mapa GOES 13 Colorida (Sul)

Imagem satélite Climatempo

Radar de chuvas (Lontras/SC)

Radar Ciram Epagri

Mapa de raios

Radios Simepar

Previsão para Florianópolis

Quarta-feira

Essencialmente limpo. Máxima de 24°C. Ventos N a 10 a 15 km/h.


Quarta à noite

Parcialmente nublado. Mínima 16°C. Ventos NNO a 10 a 15 km/h.


Quinta-feira

Parcialmente Nublado

23º / 17º

Sexta-feira

Céu Limpo

23º / 17º

Sábado

Céu Limpo

23º / 17º

Aeroporto Florianópolis/SC (FLN) - SBFL


Situação: Operando por instrumentos

Atualização: 0625 UTC 26 Jul 2017

Vento: 00KT (0,0 Km/h) - Norte (N) (000º)

Visibilidade: Maior que 10.000 metros (céu limpo)

Temperatura: 14ºC / 14ºC
Umidade relativa: 100%

Pressão: 1023 hPa

Data at: 0625 UTC 26 Jul 2017SBFL 260600Z 00000KT CAVOK 14/14 Q1023